sensor_id;sensor_type;location;lat;lon;timestamp;P1;durP1;ratioP1;P2;durP2;ratioP2
75054;SDS011;63636;44.746;10.488;2023-02-02T00:00:18;20.38;;;9.02;;
75054;SDS011;63636;44.746;10.488;2023-02-02T00:02:43;19.65;;;9.48;;
75054;SDS011;63636;44.746;10.488;2023-02-02T03:13:03;9.68;;;3.80;;
75054;SDS011;63636;44.746;10.488;2023-02-02T03:15:30;8.85;;;4.18;;
75054;SDS011;63636;44.746;10.488;2023-02-02T03:17:56;10.10;;;3.75;;
75054;SDS011;63636;44.746;10.488;2023-02-02T03:20:22;9.13;;;3.58;;
75054;SDS011;63636;44.746;10.488;2023-02-02T03:22:47;10.25;;;3.70;;
75054;SDS011;63636;44.746;10.488;2023-02-02T03:25:13;10.13;;;3.80;;
75054;SDS011;63636;44.746;10.488;2023-02-02T03:27:40;8.07;;;3.63;;
75054;SDS011;63636;44.746;10.488;2023-02-02T03:30:06;7.97;;;3.00;;
75054;SDS011;63636;44.746;10.488;2023-02-02T03:32:32;5.95;;;2.42;;
75054;SDS011;63636;44.746;10.488;2023-02-02T03:34:58;7.15;;;2.80;;
75054;SDS011;63636;44.746;10.488;2023-02-02T03:37:23;7.97;;;3.53;;
75054;SDS011;63636;44.746;10.488;2023-02-02T03:39:49;8.40;;;3.58;;
75054;SDS011;63636;44.746;10.488;2023-02-02T03:42:14;8.00;;;3.75;;
75054;SDS011;63636;44.746;10.488;2023-02-02T03:44:40;9.43;;;3.97;;
75054;SDS011;63636;44.746;10.488;2023-02-02T03:47:05;11.38;;;4.50;;
75054;SDS011;63636;44.746;10.488;2023-02-02T03:49:31;10.68;;;4.30;;
75054;SDS011;63636;44.746;10.488;2023-02-02T03:51:56;10.18;;;4.60;;
75054;SDS011;63636;44.746;10.488;2023-02-02T03:54:22;10.35;;;4.50;;
75054;SDS011;63636;44.746;10.488;2023-02-02T03:56:47;10.15;;;4.60;;
75054;SDS011;63636;44.746;10.488;2023-02-02T03:59:13;10.68;;;4.60;;
75054;SDS011;63636;44.746;10.488;2023-02-02T04:01:38;12.88;;;5.05;;
75054;SDS011;63636;44.746;10.488;2023-02-02T04:04:04;12.18;;;5.07;;
75054;SDS011;63636;44.746;10.488;2023-02-02T04:06:29;11.40;;;4.97;;
75054;SDS011;63636;44.746;10.488;2023-02-02T04:08:55;11.65;;;5.15;;
75054;SDS011;63636;44.746;10.488;2023-02-02T04:11:20;11.32;;;4.85;;
75054;SDS011;63636;44.746;10.488;2023-02-02T04:13:46;11.27;;;4.50;;
75054;SDS011;63636;44.746;10.488;2023-02-02T04:16:11;11.23;;;4.97;;
75054;SDS011;63636;44.746;10.488;2023-02-02T04:18:37;10.65;;;4.30;;
75054;SDS011;63636;44.746;10.488;2023-02-02T04:21:03;10.55;;;4.22;;
75054;SDS011;63636;44.746;10.488;2023-02-02T04:23:29;12.15;;;4.20;;
75054;SDS011;63636;44.746;10.488;2023-02-02T04:25:55;9.77;;;4.43;;
75054;SDS011;63636;44.746;10.488;2023-02-02T04:28:21;10.63;;;4.35;;
75054;SDS011;63636;44.746;10.488;2023-02-02T04:30:48;9.18;;;4.00;;
75054;SDS011;63636;44.746;10.488;2023-02-02T04:33:14;11.73;;;4.38;;
75054;SDS011;63636;44.746;10.488;2023-02-02T04:35:39;9.98;;;3.92;;
75054;SDS011;63636;44.746;10.488;2023-02-02T04:38:06;10.40;;;4.45;;
75054;SDS011;63636;44.746;10.488;2023-02-02T04:40:31;9.82;;;4.00;;
75054;SDS011;63636;44.746;10.488;2023-02-02T04:42:57;12.60;;;3.97;;
75054;SDS011;63636;44.746;10.488;2023-02-02T04:45:22;10.43;;;4.32;;
75054;SDS011;63636;44.746;10.488;2023-02-02T04:47:49;11.65;;;4.18;;
75054;SDS011;63636;44.746;10.488;2023-02-02T04:50:14;9.23;;;4.57;;
75054;SDS011;63636;44.746;10.488;2023-02-02T04:52:40;9.10;;;4.32;;
75054;SDS011;63636;44.746;10.488;2023-02-02T04:55:05;10.88;;;4.45;;
75054;SDS011;63636;44.746;10.488;2023-02-02T04:57:31;10.40;;;4.75;;
75054;SDS011;63636;44.746;10.488;2023-02-02T04:59:57;6.95;;;3.10;;
75054;SDS011;63636;44.746;10.488;2023-02-02T05:02:22;7.90;;;3.10;;
75054;SDS011;63636;44.746;10.488;2023-02-02T05:04:47;7.38;;;2.92;;
75054;SDS011;63636;44.746;10.488;2023-02-02T05:07:13;9.20;;;3.40;;
75054;SDS011;63636;44.746;10.488;2023-02-02T05:09:38;8.10;;;3.40;;
75054;SDS011;63636;44.746;10.488;2023-02-02T05:12:04;9.85;;;4.82;;
75054;SDS011;63636;44.746;10.488;2023-02-02T05:14:29;10.00;;;4.10;;
75054;SDS011;63636;44.746;10.488;2023-02-02T05:16:55;7.88;;;3.85;;
75054;SDS011;63636;44.746;10.488;2023-02-02T05:19:20;10.63;;;4.50;;
75054;SDS011;63636;44.746;10.488;2023-02-02T05:21:46;10.13;;;3.65;;
75054;SDS011;63636;44.746;10.488;2023-02-02T05:24:14;9.88;;;4.30;;
75054;SDS011;63636;44.746;10.488;2023-02-02T05:26:39;12.85;;;4.60;;
75054;SDS011;63636;44.746;10.488;2023-02-02T05:29:05;11.52;;;4.40;;
75054;SDS011;63636;44.746;10.488;2023-02-02T05:31:31;11.27;;;4.20;;
75054;SDS011;63636;44.746;10.488;2023-02-02T05:33:57;12.52;;;4.03;;
75054;SDS011;63636;44.746;10.488;2023-02-02T05:36:23;11.68;;;4.82;;
75054;SDS011;63636;44.746;10.488;2023-02-02T05:38:48;10.60;;;4.30;;
75054;SDS011;63636;44.746;10.488;2023-02-02T05:41:14;11.90;;;4.22;;
75054;SDS011;63636;44.746;10.488;2023-02-02T05:43:39;10.07;;;4.22;;
75054;SDS011;63636;44.746;10.488;2023-02-02T05:46:05;10.68;;;4.60;;
75054;SDS011;63636;44.746;10.488;2023-02-02T05:48:30;13.07;;;4.40;;
75054;SDS011;63636;44.746;10.488;2023-02-02T05:51:04;11.38;;;4.72;;
75054;SDS011;63636;44.746;10.488;2023-02-02T05:53:31;11.27;;;4.85;;
75054;SDS011;63636;44.746;10.488;2023-02-02T05:55:56;11.50;;;4.68;;
75054;SDS011;63636;44.746;10.488;2023-02-02T05:58:22;11.70;;;5.40;;
75054;SDS011;63636;44.746;10.488;2023-02-02T06:00:48;12.30;;;5.88;;
75054;SDS011;63636;44.746;10.488;2023-02-02T06:03:13;13.00;;;6.25;;
75054;SDS011;63636;44.746;10.488;2023-02-02T06:05:39;14.07;;;6.38;;
75054;SDS011;63636;44.746;10.488;2023-02-02T06:08:05;13.32;;;6.15;;
75054;SDS011;63636;44.746;10.488;2023-02-02T06:10:30;14.20;;;6.50;;
75054;SDS011;63636;44.746;10.488;2023-02-02T06:12:56;15.30;;;6.57;;
75054;SDS011;63636;44.746;10.488;2023-02-02T06:15:22;17.65;;;7.35;;
75054;SDS011;63636;44.746;10.488;2023-02-02T06:17:47;16.15;;;7.63;;
75054;SDS011;63636;44.746;10.488;2023-02-02T06:20:13;16.67;;;7.10;;
75054;SDS011;63636;44.746;10.488;2023-02-02T06:22:38;18.80;;;7.85;;
75054;SDS011;63636;44.746;10.488;2023-02-02T06:25:04;20.02;;;8.38;;
75054;SDS011;63636;44.746;10.488;2023-02-02T06:27:32;19.48;;;7.90;;
75054;SDS011;63636;44.746;10.488;2023-02-02T06:29:57;19.70;;;8.20;;
75054;SDS011;63636;44.746;10.488;2023-02-02T06:32:23;21.05;;;8.20;;
75054;SDS011;63636;44.746;10.488;2023-02-02T06:34:48;18.23;;;8.95;;
75054;SDS011;63636;44.746;10.488;2023-02-02T06:37:14;22.33;;;9.25;;
75054;SDS011;63636;44.746;10.488;2023-02-02T06:39:40;21.27;;;9.27;;
75054;SDS011;63636;44.746;10.488;2023-02-02T06:42:05;19.65;;;8.68;;
75054;SDS011;63636;44.746;10.488;2023-02-02T06:44:31;22.70;;;9.05;;
75054;SDS011;63636;44.746;10.488;2023-02-02T06:46:56;19.65;;;8.80;;
75054;SDS011;63636;44.746;10.488;2023-02-02T06:49:22;21.40;;;9.68;;
75054;SDS011;63636;44.746;10.488;2023-02-02T06:51:47;18.58;;;9.63;;
75054;SDS011;63636;44.746;10.488;2023-02-02T06:54:13;20.50;;;9.48;;
75054;SDS011;63636;44.746;10.488;2023-02-02T06:56:39;19.25;;;9.68;;
75054;SDS011;63636;44.746;10.488;2023-02-02T06:59:04;24.73;;;10.20;;
75054;SDS011;63636;44.746;10.488;2023-02-02T07:01:30;20.92;;;9.73;;
75054;SDS011;63636;44.746;10.488;2023-02-02T07:03:56;22.23;;;10.18;;
75054;SDS011;63636;44.746;10.488;2023-02-02T07:06:23;22.33;;;9.50;;
75054;SDS011;63636;44.746;10.488;2023-02-02T07:08:49;19.90;;;8.68;;
75054;SDS011;63636;44.746;10.488;2023-02-02T07:11:15;21.38;;;9.65;;
75054;SDS011;63636;44.746;10.488;2023-02-02T07:13:42;21.45;;;9.25;;
75054;SDS011;63636;44.746;10.488;2023-02-02T07:16:07;28.55;;;11.55;;
75054;SDS011;63636;44.746;10.488;2023-02-02T07:18:33;24.67;;;11.35;;
75054;SDS011;63636;44.746;10.488;2023-02-02T07:21:01;26.08;;;11.57;;
75054;SDS011;63636;44.746;10.488;2023-02-02T07:23:27;29.05;;;12.52;;
75054;SDS011;63636;44.746;10.488;2023-02-02T07:25:59;27.30;;;13.23;;
75054;SDS011;63636;44.746;10.488;2023-02-02T07:28:25;26.48;;;12.68;;
75054;SDS011;63636;44.746;10.488;2023-02-02T07:30:51;23.65;;;12.32;;
75054;SDS011;63636;44.746;10.488;2023-02-02T07:33:16;29.25;;;12.93;;
75054;SDS011;63636;44.746;10.488;2023-02-02T07:35:42;30.85;;;13.63;;
75054;SDS011;63636;44.746;10.488;2023-02-02T07:38:07;28.80;;;12.15;;
75054;SDS011;63636;44.746;10.488;2023-02-02T07:40:33;22.02;;;11.35;;
75054;SDS011;63636;44.746;10.488;2023-02-02T07:42:58;23.50;;;11.23;;
75054;SDS011;63636;44.746;10.488;2023-02-02T07:45:25;24.45;;;11.70;;
75054;SDS011;63636;44.746;10.488;2023-02-02T07:47:54;23.10;;;11.50;;
75054;SDS011;63636;44.746;10.488;2023-02-02T07:50:19;26.38;;;11.05;;
75054;SDS011;63636;44.746;10.488;2023-02-02T07:52:45;24.83;;;10.80;;
75054;SDS011;63636;44.746;10.488;2023-02-02T07:55:10;22.65;;;10.27;;
75054;SDS011;63636;44.746;10.488;2023-02-02T07:57:36;24.17;;;11.13;;
75054;SDS011;63636;44.746;10.488;2023-02-02T08:00:02;22.95;;;11.02;;
75054;SDS011;63636;44.746;10.488;2023-02-02T08:02:37;21.45;;;11.00;;
75054;SDS011;63636;44.746;10.488;2023-02-02T08:05:03;18.23;;;9.98;;
75054;SDS011;63636;44.746;10.488;2023-02-02T08:07:32;20.95;;;10.23;;
75054;SDS011;63636;44.746;10.488;2023-02-02T08:09:58;23.83;;;10.70;;
75054;SDS011;63636;44.746;10.488;2023-02-02T08:12:23;20.35;;;11.05;;
75054;SDS011;63636;44.746;10.488;2023-02-02T08:14:50;20.65;;;10.90;;
75054;SDS011;63636;44.746;10.488;2023-02-02T08:17:16;25.23;;;11.23;;
75054;SDS011;63636;44.746;10.488;2023-02-02T08:19:42;21.73;;;10.82;;
75054;SDS011;63636;44.746;10.488;2023-02-02T08:22:07;23.13;;;11.25;;
75054;SDS011;63636;44.746;10.488;2023-02-02T08:24:33;24.30;;;11.60;;
75054;SDS011;63636;44.746;10.488;2023-02-02T08:26:58;23.58;;;11.27;;
75054;SDS011;63636;44.746;10.488;2023-02-02T08:29:24;21.95;;;10.48;;
75054;SDS011;63636;44.746;10.488;2023-02-02T08:31:49;22.25;;;11.73;;
75054;SDS011;63636;44.746;10.488;2023-02-02T08:34:15;23.73;;;11.80;;
75054;SDS011;63636;44.746;10.488;2023-02-02T08:36:40;26.27;;;11.73;;
75054;SDS011;63636;44.746;10.488;2023-02-02T08:39:07;25.13;;;12.88;;
75054;SDS011;63636;44.746;10.488;2023-02-02T08:41:32;24.13;;;11.60;;
75054;SDS011;63636;44.746;10.488;2023-02-02T08:43:58;23.35;;;11.45;;
75054;SDS011;63636;44.746;10.488;2023-02-02T08:49:32;23.38;;;10.98;;
75054;SDS011;63636;44.746;10.488;2023-02-02T08:51:57;18.98;;;11.45;;
75054;SDS011;63636;44.746;10.488;2023-02-02T08:54:23;21.75;;;11.50;;
75054;SDS011;63636;44.746;10.488;2023-02-02T08:56:49;18.75;;;10.20;;
75054;SDS011;63636;44.746;10.488;2023-02-02T08:59:14;20.88;;;11.05;;
75054;SDS011;63636;44.746;10.488;2023-02-02T09:01:40;21.08;;;11.43;;
75054;SDS011;63636;44.746;10.488;2023-02-02T09:04:06;23.95;;;10.98;;
75054;SDS011;63636;44.746;10.488;2023-02-02T09:06:38;20.15;;;10.82;;
75054;SDS011;63636;44.746;10.488;2023-02-02T09:09:04;20.95;;;11.48;;
75054;SDS011;63636;44.746;10.488;2023-02-02T09:11:30;21.55;;;11.60;;
75054;SDS011;63636;44.746;10.488;2023-02-02T09:13:56;19.52;;;11.20;;
75054;SDS011;63636;44.746;10.488;2023-02-02T09:16:22;23.02;;;11.98;;
75054;SDS011;63636;44.746;10.488;2023-02-02T09:18:48;22.90;;;11.57;;
75054;SDS011;63636;44.746;10.488;2023-02-02T09:21:15;22.52;;;11.48;;
75054;SDS011;63636;44.746;10.488;2023-02-02T09:23:41;21.65;;;10.85;;
75054;SDS011;63636;44.746;10.488;2023-02-02T09:26:07;25.25;;;11.13;;
75054;SDS011;63636;44.746;10.488;2023-02-02T09:28:33;21.33;;;10.70;;
75054;SDS011;63636;44.746;10.488;2023-02-02T09:31:02;20.85;;;10.73;;
75054;SDS011;63636;44.746;10.488;2023-02-02T09:33:28;20.42;;;9.93;;
75054;SDS011;63636;44.746;10.488;2023-02-02T09:35:53;19.88;;;9.73;;
75054;SDS011;63636;44.746;10.488;2023-02-02T09:38:19;18.67;;;9.75;;
75054;SDS011;63636;44.746;10.488;2023-02-02T09:40:44;20.00;;;9.88;;
75054;SDS011;63636;44.746;10.488;2023-02-02T09:43:25;18.02;;;9.48;;
75054;SDS011;63636;44.746;10.488;2023-02-02T09:51:22;18.50;;;9.02;;
75054;SDS011;63636;44.746;10.488;2023-02-02T09:53:59;19.27;;;9.50;;
75054;SDS011;63636;44.746;10.488;2023-02-02T09:56:29;16.02;;;8.80;;
75054;SDS011;63636;44.746;10.488;2023-02-02T09:58:58;16.70;;;8.38;;
75054;SDS011;63636;44.746;10.488;2023-02-02T10:06:42;14.07;;;6.93;;
75054;SDS011;63636;44.746;10.488;2023-02-02T10:14:41;12.65;;;6.93;;
75054;SDS011;63636;44.746;10.488;2023-02-02T10:19:55;11.77;;;5.50;;
75054;SDS011;63636;44.746;10.488;2023-02-02T10:22:23;10.27;;;5.30;;
75054;SDS011;63636;44.746;10.488;2023-02-02T10:24:51;12.13;;;4.97;;
75054;SDS011;63636;44.746;10.488;2023-02-02T10:27:21;8.63;;;4.70;;
75054;SDS011;63636;44.746;10.488;2023-02-02T10:29:58;13.32;;;4.78;;
75054;SDS011;63636;44.746;10.488;2023-02-02T10:32:24;9.55;;;4.07;;
75054;SDS011;63636;44.746;10.488;2023-02-02T10:42:34;8.38;;;3.70;;
75054;SDS011;63636;44.746;10.488;2023-02-02T10:45:03;8.40;;;4.00;;
75054;SDS011;63636;44.746;10.488;2023-02-02T10:47:32;7.55;;;3.20;;
75054;SDS011;63636;44.746;10.488;2023-02-02T10:50:09;10.02;;;3.47;;
75054;SDS011;63636;44.746;10.488;2023-02-02T10:52:39;6.95;;;3.30;;
75054;SDS011;63636;44.746;10.488;2023-02-02T10:55:13;7.78;;;3.10;;
75054;SDS011;63636;44.746;10.488;2023-02-02T11:03:09;6.65;;;3.00;;
75054;SDS011;63636;44.746;10.488;2023-02-02T11:05:36;7.75;;;3.20;;
75054;SDS011;63636;44.746;10.488;2023-02-02T11:08:24;7.03;;;3.10;;
75054;SDS011;63636;44.746;10.488;2023-02-02T11:10:53;7.95;;;2.90;;
75054;SDS011;63636;44.746;10.488;2023-02-02T11:13:24;6.18;;;2.70;;
75054;SDS011;63636;44.746;10.488;2023-02-02T11:16:04;7.55;;;3.25;;
75054;SDS011;63636;44.746;10.488;2023-02-02T11:18:36;7.43;;;3.08;;
75054;SDS011;63636;44.746;10.488;2023-02-02T11:21:02;7.05;;;3.10;;
75054;SDS011;63636;44.746;10.488;2023-02-02T11:23:27;6.78;;;3.28;;
75054;SDS011;63636;44.746;10.488;2023-02-02T11:25:57;7.32;;;2.90;;
75054;SDS011;63636;44.746;10.488;2023-02-02T11:28:23;6.03;;;2.80;;
75054;SDS011;63636;44.746;10.488;2023-02-02T11:30:52;7.70;;;2.88;;
75054;SDS011;63636;44.746;10.488;2023-02-02T11:33:31;7.70;;;2.95;;
75054;SDS011;63636;44.746;10.488;2023-02-02T11:36:01;6.78;;;2.80;;
75054;SDS011;63636;44.746;10.488;2023-02-02T11:38:27;7.82;;;2.85;;
75054;SDS011;63636;44.746;10.488;2023-02-02T11:43:19;5.43;;;2.50;;
75054;SDS011;63636;44.746;10.488;2023-02-02T11:45:52;6.07;;;2.60;;
75054;SDS011;63636;44.746;10.488;2023-02-02T11:48:19;6.55;;;2.55;;
75054;SDS011;63636;44.746;10.488;2023-02-02T11:50:50;6.70;;;2.50;;
75054;SDS011;63636;44.746;10.488;2023-02-02T11:56:16;8.10;;;2.50;;
75054;SDS011;63636;44.746;10.488;2023-02-02T12:01:10;4.10;;;2.10;;
75054;SDS011;63636;44.746;10.488;2023-02-02T12:03:47;7.00;;;2.47;;
75054;SDS011;63636;44.746;10.488;2023-02-02T12:06:17;5.57;;;2.40;;
75054;SDS011;63636;44.746;10.488;2023-02-02T12:08:43;5.28;;;2.30;;
75054;SDS011;63636;44.746;10.488;2023-02-02T12:11:08;4.88;;;2.22;;
75054;SDS011;63636;44.746;10.488;2023-02-02T12:14:01;6.38;;;2.42;;
75054;SDS011;63636;44.746;10.488;2023-02-02T12:19:13;5.88;;;2.22;;
75054;SDS011;63636;44.746;10.488;2023-02-02T12:21:42;7.93;;;2.10;;
75054;SDS011;63636;44.746;10.488;2023-02-02T12:26:38;6.07;;;2.45;;
75054;SDS011;63636;44.746;10.488;2023-02-02T12:39:07;4.68;;;2.03;;
75054;SDS011;63636;44.746;10.488;2023-02-02T12:41:59;7.50;;;1.17;;
75054;SDS011;63636;44.746;10.488;2023-02-02T12:54:45;9.45;;;1.10;;
75054;SDS011;63636;44.746;10.488;2023-02-02T12:57:18;2.42;;;0.70;;
75054;SDS011;63636;44.746;10.488;2023-02-02T13:05:00;0.70;;;0.40;;
75054;SDS011;63636;44.746;10.488;2023-02-02T13:07:34;4.10;;;0.60;;
75054;SDS011;63636;44.746;10.488;2023-02-02T13:10:05;8.02;;;1.05;;
75054;SDS011;63636;44.746;10.488;2023-02-02T13:12:34;0.70;;;0.43;;
75054;SDS011;63636;44.746;10.488;2023-02-02T13:15:02;2.22;;;0.60;;
75054;SDS011;63636;44.746;10.488;2023-02-02T13:17:39;2.97;;;0.55;;
75054;SDS011;63636;44.746;10.488;2023-02-02T13:22:50;1.85;;;0.57;;
75054;SDS011;63636;44.746;10.488;2023-02-02T13:25:18;1.55;;;0.50;;
75054;SDS011;63636;44.746;10.488;2023-02-02T13:27:47;2.92;;;0.50;;
75054;SDS011;63636;44.746;10.488;2023-02-02T13:30:27;3.08;;;0.60;;
75054;SDS011;63636;44.746;10.488;2023-02-02T13:32:57;3.05;;;0.60;;
75054;SDS011;63636;44.746;10.488;2023-02-02T13:35:24;2.60;;;0.70;;
75054;SDS011;63636;44.746;10.488;2023-02-02T13:37:57;2.38;;;0.60;;
75054;SDS011;63636;44.746;10.488;2023-02-02T13:45:39;1.63;;;0.57;;
75054;SDS011;63636;44.746;10.488;2023-02-02T13:50:43;2.95;;;0.77;;
75054;SDS011;63636;44.746;10.488;2023-02-02T13:58:18;4.32;;;0.80;;
75054;SDS011;63636;44.746;10.488;2023-02-02T14:00:47;2.15;;;0.60;;
75054;SDS011;63636;44.746;10.488;2023-02-02T14:05:43;1.52;;;0.70;;
75054;SDS011;63636;44.746;10.488;2023-02-02T14:13:19;3.42;;;0.80;;
75054;SDS011;63636;44.746;10.488;2023-02-02T14:16:04;1.98;;;0.75;;
75054;SDS011;63636;44.746;10.488;2023-02-02T14:24:02;2.47;;;0.75;;
75054;SDS011;63636;44.746;10.488;2023-02-02T14:29:12;4.57;;;1.33;;
75054;SDS011;63636;44.746;10.488;2023-02-02T14:31:53;3.08;;;1.30;;
75054;SDS011;63636;44.746;10.488;2023-02-02T14:39:28;3.28;;;1.20;;
75054;SDS011;63636;44.746;10.488;2023-02-02T14:42:22;2.85;;;1.10;;
75054;SDS011;63636;44.746;10.488;2023-02-02T14:47:47;2.60;;;0.95;;
75054;SDS011;63636;44.746;10.488;2023-02-02T14:50:18;2.65;;;0.90;;
75054;SDS011;63636;44.746;10.488;2023-02-02T14:52:45;4.50;;;1.40;;
75054;SDS011;63636;44.746;10.488;2023-02-02T14:55:20;2.13;;;0.82;;
75054;SDS011;63636;44.746;10.488;2023-02-02T14:57:56;2.78;;;1.00;;
75054;SDS011;63636;44.746;10.488;2023-02-02T15:00:23;4.28;;;1.00;;
75054;SDS011;63636;44.746;10.488;2023-02-02T15:02:49;11.63;;;1.33;;
75054;SDS011;63636;44.746;10.488;2023-02-02T15:07:53;3.92;;;1.02;;
75054;SDS011;63636;44.746;10.488;2023-02-02T15:13:05;3.75;;;1.30;;
75054;SDS011;63636;44.746;10.488;2023-02-02T15:15:31;4.75;;;1.27;;
75054;SDS011;63636;44.746;10.488;2023-02-02T15:18:05;5.05;;;1.50;;
75054;SDS011;63636;44.746;10.488;2023-02-02T15:20:46;5.80;;;1.50;;
75054;SDS011;63636;44.746;10.488;2023-02-02T15:26:02;2.97;;;1.20;;
75054;SDS011;63636;44.746;10.488;2023-02-02T15:28:42;4.50;;;1.30;;
75054;SDS011;63636;44.746;10.488;2023-02-02T15:33:35;4.38;;;1.52;;
75054;SDS011;63636;44.746;10.488;2023-02-02T15:36:08;6.38;;;1.63;;
75054;SDS011;63636;44.746;10.488;2023-02-02T15:41:04;4.55;;;1.50;;
75054;SDS011;63636;44.746;10.488;2023-02-02T15:43:30;7.38;;;1.50;;
75054;SDS011;63636;44.746;10.488;2023-02-02T15:46:05;6.35;;;1.75;;
75054;SDS011;63636;44.746;10.488;2023-02-02T15:48:31;6.90;;;2.20;;
75054;SDS011;63636;44.746;10.488;2023-02-02T15:50:59;9.80;;;1.70;;
75054;SDS011;63636;44.746;10.488;2023-02-02T15:53:27;5.20;;;1.58;;
75054;SDS011;63636;44.746;10.488;2023-02-02T15:55:54;2.78;;;1.40;;
75054;SDS011;63636;44.746;10.488;2023-02-02T16:00:55;5.78;;;1.65;;
75054;SDS011;63636;44.746;10.488;2023-02-02T16:03:22;5.43;;;1.70;;
75054;SDS011;63636;44.746;10.488;2023-02-02T16:05:50;4.07;;;1.50;;
75054;SDS011;63636;44.746;10.488;2023-02-02T16:08:18;4.80;;;1.67;;
75054;SDS011;63636;44.746;10.488;2023-02-02T16:10:45;4.95;;;1.90;;
75054;SDS011;63636;44.746;10.488;2023-02-02T16:13:24;4.97;;;2.13;;
75054;SDS011;63636;44.746;10.488;2023-02-02T16:15:54;5.70;;;2.25;;
75054;SDS011;63636;44.746;10.488;2023-02-02T16:18:20;7.03;;;2.10;;
75054;SDS011;63636;44.746;10.488;2023-02-02T16:20:45;5.10;;;2.40;;
75054;SDS011;63636;44.746;10.488;2023-02-02T16:23:12;5.38;;;2.17;;
75054;SDS011;63636;44.746;10.488;2023-02-02T16:25:45;9.63;;;2.28;;
75054;SDS011;63636;44.746;10.488;2023-02-02T16:28:12;5.25;;;1.85;;
75054;SDS011;63636;44.746;10.488;2023-02-02T16:30:39;5.90;;;2.00;;
75054;SDS011;63636;44.746;10.488;2023-02-02T16:35:48;4.82;;;2.03;;
75054;SDS011;63636;44.746;10.488;2023-02-02T16:38:21;6.63;;;2.67;;
75054;SDS011;63636;44.746;10.488;2023-02-02T16:40:47;7.15;;;2.50;;
75054;SDS011;63636;44.746;10.488;2023-02-02T16:45:45;6.13;;;2.20;;
75054;SDS011;63636;44.746;10.488;2023-02-02T16:51:00;7.80;;;2.83;;
75054;SDS011;63636;44.746;10.488;2023-02-02T16:53:27;10.90;;;3.00;;
75054;SDS011;63636;44.746;10.488;2023-02-02T16:55:52;7.70;;;2.72;;
75054;SDS011;63636;44.746;10.488;2023-02-02T16:58:20;6.40;;;2.65;;
75054;SDS011;63636;44.746;10.488;2023-02-02T17:03:21;4.47;;;2.28;;
75054;SDS011;63636;44.746;10.488;2023-02-02T17:05:50;5.85;;;2.63;;
75054;SDS011;63636;44.746;10.488;2023-02-02T17:08:24;8.50;;;2.38;;
75054;SDS011;63636;44.746;10.488;2023-02-02T17:10:59;5.00;;;2.28;;
75054;SDS011;63636;44.746;10.488;2023-02-02T17:15:57;5.18;;;2.13;;
75054;SDS011;63636;44.746;10.488;2023-02-02T17:18:22;7.38;;;2.55;;
75054;SDS011;63636;44.746;10.488;2023-02-02T17:20:48;7.40;;;2.50;;
75054;SDS011;63636;44.746;10.488;2023-02-02T17:23:20;5.87;;;2.80;;
75054;SDS011;63636;44.746;10.488;2023-02-02T17:25:46;8.10;;;3.83;;
75054;SDS011;63636;44.746;10.488;2023-02-02T17:28:13;14.63;;;6.13;;
75054;SDS011;63636;44.746;10.488;2023-02-02T17:30:44;12.02;;;6.03;;
75054;SDS011;63636;44.746;10.488;2023-02-02T17:33:11;14.45;;;6.32;;
75054;SDS011;63636;44.746;10.488;2023-02-02T17:35:39;18.67;;;9.10;;
75054;SDS011;63636;44.746;10.488;2023-02-02T17:38:04;14.13;;;6.90;;
75054;SDS011;63636;44.746;10.488;2023-02-02T17:40:30;22.80;;;12.32;;
75054;SDS011;63636;44.746;10.488;2023-02-02T17:42:57;40.72;;;20.70;;
75054;SDS011;63636;44.746;10.488;2023-02-02T17:45:32;11.60;;;5.78;;
75054;SDS011;63636;44.746;10.488;2023-02-02T17:48:00;18.52;;;8.95;;
75054;SDS011;63636;44.746;10.488;2023-02-02T17:50:26;21.70;;;11.40;;
75054;SDS011;63636;44.746;10.488;2023-02-02T17:52:51;25.52;;;12.48;;
75054;SDS011;63636;44.746;10.488;2023-02-02T17:55:21;21.65;;;10.90;;
75054;SDS011;63636;44.746;10.488;2023-02-02T17:57:47;33.67;;;16.35;;
75054;SDS011;63636;44.746;10.488;2023-02-02T18:00:13;23.30;;;11.80;;
75054;SDS011;63636;44.746;10.488;2023-02-02T18:02:39;20.13;;;9.93;;
75054;SDS011;63636;44.746;10.488;2023-02-02T18:05:05;19.45;;;9.80;;
75054;SDS011;63636;44.746;10.488;2023-02-02T18:07:30;20.58;;;9.82;;
75054;SDS011;63636;44.746;10.488;2023-02-02T18:09:56;16.33;;;7.25;;
75054;SDS011;63636;44.746;10.488;2023-02-02T18:12:21;17.42;;;8.13;;
75054;SDS011;63636;44.746;10.488;2023-02-02T18:14:47;13.90;;;6.75;;
75054;SDS011;63636;44.746;10.488;2023-02-02T18:17:13;14.32;;;6.68;;
75054;SDS011;63636;44.746;10.488;2023-02-02T18:19:38;16.92;;;8.13;;
75054;SDS011;63636;44.746;10.488;2023-02-02T18:22:09;16.13;;;7.70;;
75054;SDS011;63636;44.746;10.488;2023-02-02T18:24:34;13.82;;;6.82;;
75054;SDS011;63636;44.746;10.488;2023-02-02T18:27:00;15.13;;;7.10;;
75054;SDS011;63636;44.746;10.488;2023-02-02T18:29:26;15.40;;;7.65;;
75054;SDS011;63636;44.746;10.488;2023-02-02T18:31:51;16.77;;;7.68;;
75054;SDS011;63636;44.746;10.488;2023-02-02T18:34:17;16.70;;;7.80;;
75054;SDS011;63636;44.746;10.488;2023-02-02T18:36:42;16.67;;;8.18;;
75054;SDS011;63636;44.746;10.488;2023-02-02T18:39:07;13.15;;;7.20;;
75054;SDS011;63636;44.746;10.488;2023-02-02T18:41:34;14.95;;;7.50;;
75054;SDS011;63636;44.746;10.488;2023-02-02T18:43:59;22.27;;;9.82;;
75054;SDS011;63636;44.746;10.488;2023-02-02T18:46:25;16.98;;;9.13;;
75054;SDS011;63636;44.746;10.488;2023-02-02T18:48:51;22.13;;;10.82;;
75054;SDS011;63636;44.746;10.488;2023-02-02T18:51:16;19.95;;;9.25;;
75054;SDS011;63636;44.746;10.488;2023-02-02T18:53:43;18.65;;;9.10;;
75054;SDS011;63636;44.746;10.488;2023-02-02T18:56:09;16.35;;;8.40;;
75054;SDS011;63636;44.746;10.488;2023-02-02T18:58:35;12.75;;;6.82;;
75054;SDS011;63636;44.746;10.488;2023-02-02T19:01:08;17.67;;;8.43;;
75054;SDS011;63636;44.746;10.488;2023-02-02T19:03:33;13.27;;;7.47;;
75054;SDS011;63636;44.746;10.488;2023-02-02T19:06:01;11.45;;;6.20;;
75054;SDS011;63636;44.746;10.488;2023-02-02T19:08:45;13.18;;;5.90;;
75054;SDS011;63636;44.746;10.488;2023-02-02T19:11:13;11.80;;;5.85;;
75054;SDS011;63636;44.746;10.488;2023-02-02T19:13:39;16.33;;;6.53;;
75054;SDS011;63636;44.746;10.488;2023-02-02T19:16:07;12.95;;;5.82;;
75054;SDS011;63636;44.746;10.488;2023-02-02T19:18:37;15.95;;;7.80;;
75054;SDS011;63636;44.746;10.488;2023-02-02T19:21:02;16.95;;;7.72;;
75054;SDS011;63636;44.746;10.488;2023-02-02T19:23:29;12.77;;;5.40;;
75054;SDS011;63636;44.746;10.488;2023-02-02T19:25:56;10.85;;;5.10;;
75054;SDS011;63636;44.746;10.488;2023-02-02T19:30:51;13.07;;;4.47;;
75054;SDS011;63636;44.746;10.488;2023-02-02T19:33:17;10.00;;;4.25;;
75054;SDS011;63636;44.746;10.488;2023-02-02T19:35:45;10.90;;;4.05;;
75054;SDS011;63636;44.746;10.488;2023-02-02T19:40:41;11.07;;;4.88;;
75054;SDS011;63636;44.746;10.488;2023-02-02T19:45:38;12.18;;;4.93;;
75054;SDS011;63636;44.746;10.488;2023-02-02T19:48:14;14.82;;;6.50;;
75054;SDS011;63636;44.746;10.488;2023-02-02T19:50:40;25.42;;;12.05;;
75054;SDS011;63636;44.746;10.488;2023-02-02T19:53:13;25.35;;;12.10;;
75054;SDS011;63636;44.746;10.488;2023-02-02T19:55:40;36.88;;;15.20;;
75054;SDS011;63636;44.746;10.488;2023-02-02T19:58:27;25.23;;;12.48;;
75054;SDS011;63636;44.746;10.488;2023-02-02T20:00:54;18.10;;;9.05;;
75054;SDS011;63636;44.746;10.488;2023-02-02T20:03:23;18.15;;;7.90;;